Time;durP1;ratioP1;P1;durP2;ratioP2;P2;SDS_P1;SDS_P2;PMS_P1;PMS_P2;Temp;Humidity;BMP_temperature;BMP_pressure;BME280_temperature;BME280_humidity;BME280_pressure;Samples;Min_cycle;Max_cycle;Signal;HPM_P1;HPM_P2
2022/03/31 00:00:15;;;;;;;15.95;7.82;;;;;;;;;;5015231;28;20052;-67
2022/03/31 00:02:40;;;;;;;15.02;7.65;;;;;;;;;;5016345;28;20345;-67
2022/03/31 00:05:06;;;;;;;14.00;7.75;;;;;;;;;;5014100;28;20029;-66
2022/03/31 00:07:31;;;;;;;16.92;9.23;;;;;;;;;;5016692;28;20036;-66
2022/03/31 00:09:56;;;;;;;16.60;8.07;;;;;;;;;;5018353;28;20129;-66
2022/03/31 00:12:21;;;;;;;20.63;9.35;;;;;;;;;;5016523;28;20335;-66
2022/03/31 00:14:47;;;;;;;19.95;9.63;;;;;;;;;;5025544;28;20547;-66
2022/03/31 00:17:12;;;;;;;20.90;9.93;;;;;;;;;;5017508;28;20458;-67
2022/03/31 00:19:38;;;;;;;24.00;9.85;;;;;;;;;;5018207;28;20472;-67
2022/03/31 00:34:14;;;;;;;22.23;9.35;;;;;;;;;;5018338;28;20740;-67
2022/03/31 00:36:49;;;;;;;19.70;9.13;;;;;;;;;;5014846;28;20052;-67
2022/03/31 00:39:29;;;;;;;19.45;9.07;;;;;;;;;;5016249;28;20113;-67
2022/03/31 00:41:55;;;;;;;23.17;10.48;;;;;;;;;;5015469;28;20498;-67
2022/03/31 00:44:20;;;;;;;27.38;10.07;;;;;;;;;;5019398;28;20113;-67
2022/03/31 00:46:52;;;;;;;20.85;9.32;;;;;;;;;;5017459;28;20630;-66
2022/03/31 00:49:18;;;;;;;22.70;9.90;;;;;;;;;;5022325;28;20538;-67
2022/03/31 00:51:43;;;;;;;24.70;10.40;;;;;;;;;;5015562;28;20030;-66
2022/03/31 00:54:08;;;;;;;25.88;9.95;;;;;;;;;;5011721;28;20021;-66
2022/03/31 00:56:34;;;;;;;22.60;9.52;;;;;;;;;;5015316;28;20436;-66
2022/03/31 00:59:01;;;;;;;23.33;10.25;;;;;;;;;;5010180;28;20283;-66
2022/03/31 01:01:27;;;;;;;20.70;9.18;;;;;;;;;;5013938;28;20021;-66
2022/03/31 01:03:52;;;;;;;20.42;9.02;;;;;;;;;;5014664;28;21552;-66
2022/03/31 01:06:18;;;;;;;21.65;9.20;;;;;;;;;;5020009;28;20199;-66
2022/03/31 01:08:43;;;;;;;19.00;8.32;;;;;;;;;;5015894;28;20543;-67
2022/03/31 01:11:08;;;;;;;17.80;8.15;;;;;;;;;;5015874;28;20033;-67
2022/03/31 01:13:33;;;;;;;19.08;9.00;;;;;;;;;;5019536;28;20526;-66
2022/03/31 01:15:59;;;;;;;19.13;8.52;;;;;;;;;;5016467;28;20029;-66
2022/03/31 01:18:25;;;;;;;23.63;9.90;;;;;;;;;;5016580;28;20769;-66
2022/03/31 01:20:50;;;;;;;24.10;9.55;;;;;;;;;;5019569;28;20034;-66
2022/03/31 01:23:15;;;;;;;23.30;9.40;;;;;;;;;;5012586;28;20101;-66
2022/03/31 01:25:41;;;;;;;26.02;9.40;;;;;;;;;;5016638;28;20026;-66
2022/03/31 01:28:07;;;;;;;26.38;10.02;;;;;;;;;;5016263;28;20021;-66
2022/03/31 01:30:32;;;;;;;30.25;9.93;;;;;;;;;;5019749;28;20025;-65
2022/03/31 01:32:57;;;;;;;23.33;10.73;;;;;;;;;;5021145;28;20762;-66
2022/03/31 01:35:23;;;;;;;22.90;11.05;;;;;;;;;;5022091;28;20116;-66
2022/03/31 01:37:49;;;;;;;25.27;11.05;;;;;;;;;;5018839;28;20025;-66
2022/03/31 01:40:14;;;;;;;20.15;9.55;;;;;;;;;;5020076;28;20029;-66
2022/03/31 01:42:40;;;;;;;22.75;10.00;;;;;;;;;;5023552;28;20116;-67
2022/03/31 01:45:07;;;;;;;23.42;9.88;;;;;;;;;;5021252;28;20029;-66
2022/03/31 01:47:32;;;;;;;26.25;10.18;;;;;;;;;;5020833;28;20551;-66
2022/03/31 01:49:57;;;;;;;25.90;10.88;;;;;;;;;;5026470;28;20033;-66
2022/03/31 01:52:23;;;;;;;28.88;10.70;;;;;;;;;;5019593;28;20021;-66
2022/03/31 01:54:49;;;;;;;30.80;12.23;;;;;;;;;;5021994;28;20025;-67
2022/03/31 01:57:14;;;;;;;27.00;11.32;;;;;;;;;;5018161;28;20014;-66
2022/03/31 01:59:41;;;;;;;33.40;12.25;;;;;;;;;;5018634;28;20038;-66
2022/03/31 02:02:06;;;;;;;27.55;11.48;;;;;;;;;;5021716;28;20459;-66
2022/03/31 02:04:32;;;;;;;31.17;12.30;;;;;;;;;;5017956;28;20067;-66
2022/03/31 02:06:57;;;;;;;30.08;11.90;;;;;;;;;;5018734;28;20017;-66
2022/03/31 02:09:22;;;;;;;32.20;13.18;;;;;;;;;;5021145;28;20072;-66
2022/03/31 02:11:47;;;;;;;20.60;9.30;;;;;;;;;;5020561;28;20028;-66
2022/03/31 02:14:13;;;;;;;25.50;11.65;;;;;;;;;;5020820;28;20037;-68
2022/03/31 02:16:39;;;;;;;30.65;12.48;;;;;;;;;;5017805;28;20033;-66
2022/03/31 02:19:04;;;;;;;31.98;12.95;;;;;;;;;;5022574;28;20117;-68
2022/03/31 02:21:29;;;;;;;37.15;13.13;;;;;;;;;;5013220;28;20072;-68
2022/03/31 02:23:54;;;;;;;33.67;12.90;;;;;;;;;;5021552;28;20028;-68
2022/03/31 02:26:20;;;;;;;34.42;13.40;;;;;;;;;;5017511;28;20064;-68
2022/03/31 02:28:45;;;;;;;39.00;14.15;;;;;;;;;;5019364;28;20029;-68
2022/03/31 02:31:10;;;;;;;46.10;16.25;;;;;;;;;;5020941;28;20048;-68
2022/03/31 02:33:36;;;;;;;56.75;15.38;;;;;;;;;;5018463;28;20080;-68
2022/03/31 02:36:01;;;;;;;35.58;14.20;;;;;;;;;;5015393;28;20266;-68
2022/03/31 02:38:26;;;;;;;39.43;15.93;;;;;;;;;;5017815;28;20030;-68
2022/03/31 02:40:52;;;;;;;32.60;14.48;;;;;;;;;;5019991;28;20279;-68
2022/03/31 02:43:17;;;;;;;44.28;15.25;;;;;;;;;;5020866;28;20635;-68
2022/03/31 02:45:43;;;;;;;34.17;14.03;;;;;;;;;;5018072;28;20040;-67
2022/03/31 02:48:08;;;;;;;35.80;14.15;;;;;;;;;;5018138;28;20317;-68
2022/03/31 02:50:33;;;;;;;36.27;13.10;;;;;;;;;;5019241;28;20282;-68
2022/03/31 02:55:43;;;;;;;35.67;14.17;;;;;;;;;;5019995;28;20025;-68
2022/03/31 02:58:08;;;;;;;43.60;14.55;;;;;;;;;;5020553;28;20424;-68
2022/03/31 03:00:34;;;;;;;37.00;15.18;;;;;;;;;;5019100;28;20101;-68
2022/03/31 03:03:01;;;;;;;37.33;13.30;;;;;;;;;;5017747;28;20667;-68
2022/03/31 03:05:26;;;;;;;44.08;15.07;;;;;;;;;;5016571;28;20022;-68
2022/03/31 03:07:51;;;;;;;39.38;14.38;;;;;;;;;;5023291;28;20099;-69
2022/03/31 03:10:16;;;;;;;44.50;15.77;;;;;;;;;;5016305;28;20116;-68
2022/03/31 03:12:42;;;;;;;40.05;15.18;;;;;;;;;;5019137;28;20297;-68
2022/03/31 03:15:10;;;;;;;37.97;13.98;;;;;;;;;;5019595;28;20053;-68
2022/03/31 03:17:39;;;;;;;39.00;13.88;;;;;;;;;;5014802;28;20025;-68
2022/03/31 03:20:05;;;;;;;36.33;13.63;;;;;;;;;;5017353;28;20475;-68
2022/03/31 03:22:32;;;;;;;29.70;11.75;;;;;;;;;;5018444;28;20032;-68
2022/03/31 03:24:57;;;;;;;22.95;9.90;;;;;;;;;;5019874;28;20136;-68
2022/03/31 03:27:22;;;;;;;24.85;10.32;;;;;;;;;;5017463;28;20029;-68
2022/03/31 03:29:47;;;;;;;21.48;9.07;;;;;;;;;;5017214;28;20115;-68
2022/03/31 03:32:13;;;;;;;25.55;9.52;;;;;;;;;;5018657;28;20609;-68
2022/03/31 03:34:39;;;;;;;22.50;9.82;;;;;;;;;;5018882;28;20022;-69
2022/03/31 03:37:04;;;;;;;22.73;9.38;;;;;;;;;;5015649;28;20040;-68
2022/03/31 03:39:30;;;;;;;22.92;8.05;;;;;;;;;;5017329;28;20025;-68
2022/03/31 03:41:55;;;;;;;23.20;9.85;;;;;;;;;;5017407;28;20273;-68
2022/03/31 03:44:21;;;;;;;24.33;9.93;;;;;;;;;;5018148;28;20025;-68
2022/03/31 03:46:46;;;;;;;26.80;11.50;;;;;;;;;;5019789;28;20026;-68
2022/03/31 03:49:11;;;;;;;24.75;9.32;;;;;;;;;;5019507;28;20036;-68
2022/03/31 03:51:36;;;;;;;22.95;8.93;;;;;;;;;;5019029;28;20266;-68
2022/03/31 03:54:02;;;;;;;18.05;9.52;;;;;;;;;;5018941;28;20278;-68
2022/03/31 03:56:28;;;;;;;25.20;10.40;;;;;;;;;;5019869;28;20737;-68
2022/03/31 03:58:53;;;;;;;27.02;10.02;;;;;;;;;;5017879;28;20032;-68
2022/03/31 04:01:19;;;;;;;26.30;9.48;;;;;;;;;;5018063;28;20017;-68
2022/03/31 04:03:44;;;;;;;23.63;8.35;;;;;;;;;;5019476;28;20109;-68
2022/03/31 04:06:11;;;;;;;19.55;9.27;;;;;;;;;;5017628;28;20132;-68
2022/03/31 04:08:37;;;;;;;22.17;8.82;;;;;;;;;;5020537;28;20664;-68
2022/03/31 04:11:02;;;;;;;20.90;9.50;;;;;;;;;;5020517;28;20013;-67
2022/03/31 04:13:28;;;;;;;18.63;8.48;;;;;;;;;;5019443;28;20033;-68
2022/03/31 04:15:53;;;;;;;16.50;7.75;;;;;;;;;;5016487;28;20472;-69
2022/03/31 04:18:18;;;;;;;21.92;8.40;;;;;;;;;;5018835;28;20262;-68
2022/03/31 04:20:43;;;;;;;15.97;7.20;;;;;;;;;;5019969;28;20494;-68
2022/03/31 04:23:08;;;;;;;24.70;9.45;;;;;;;;;;5018446;28;20254;-68
2022/03/31 04:25:34;;;;;;;20.13;8.45;;;;;;;;;;5017482;28;20360;-67
2022/03/31 04:27:59;;;;;;;16.80;8.43;;;;;;;;;;5017510;28;20033;-68
2022/03/31 04:30:24;;;;;;;18.00;7.87;;;;;;;;;;5019408;28;20026;-68
2022/03/31 04:32:49;;;;;;;19.65;8.20;;;;;;;;;;4986716;28;1024369;-68
2022/03/31 04:35:15;;;;;;;15.07;7.10;;;;;;;;;;5018847;28;20032;-68
2022/03/31 04:37:40;;;;;;;20.08;8.13;;;;;;;;;;5021126;28;20053;-68
2022/03/31 04:40:06;;;;;;;17.08;7.45;;;;;;;;;;5021151;28;20329;-68
2022/03/31 04:42:31;;;;;;;22.02;10.07;;;;;;;;;;5017959;28;20498;-68
2022/03/31 04:44:57;;;;;;;18.35;7.55;;;;;;;;;;5016779;28;20048;-68
2022/03/31 04:47:22;;;;;;;20.33;8.60;;;;;;;;;;5016952;28;20022;-68
2022/03/31 04:49:47;;;;;;;14.65;6.63;;;;;;;;;;5021204;28;20049;-68
2022/03/31 04:52:13;;;;;;;13.67;6.13;;;;;;;;;;5019230;28;20384;-68
2022/03/31 04:54:43;;;;;;;11.48;5.43;;;;;;;;;;5025163;28;20285;-68
2022/03/31 04:57:09;;;;;;;10.23;6.40;;;;;;;;;;5022942;28;20029;-68
2022/03/31 04:59:34;;;;;;;12.43;6.13;;;;;;;;;;5020976;28;20021;-68
2022/03/31 05:01:59;;;;;;;15.18;5.97;;;;;;;;;;5020969;28;20061;-68
2022/03/31 05:04:25;;;;;;;16.13;6.38;;;;;;;;;;5021865;28;20305;-68
2022/03/31 05:06:50;;;;;;;14.52;5.93;;;;;;;;;;5015094;28;20046;-68
2022/03/31 05:09:15;;;;;;;11.25;5.93;;;;;;;;;;5021821;28;20025;-67
2022/03/31 05:11:40;;;;;;;15.52;5.90;;;;;;;;;;5023269;28;20275;-68
2022/03/31 05:14:05;;;;;;;15.52;6.75;;;;;;;;;;5025751;28;20474;-68
2022/03/31 05:16:30;;;;;;;19.80;7.95;;;;;;;;;;5024636;28;20263;-69
2022/03/31 05:18:56;;;;;;;19.63;7.47;;;;;;;;;;5021959;28;20274;-69
2022/03/31 05:21:21;;;;;;;15.73;6.93;;;;;;;;;;5022249;28;20026;-71
2022/03/31 05:23:46;;;;;;;13.27;7.05;;;;;;;;;;5023491;28;20081;-68
2022/03/31 05:26:12;;;;;;;19.63;8.57;;;;;;;;;;5024282;28;20273;-69
2022/03/31 05:28:38;;;;;;;13.25;6.10;;;;;;;;;;5023667;28;20033;-71
2022/03/31 05:31:03;;;;;;;14.07;6.60;;;;;;;;;;5020705;28;20034;-68
2022/03/31 05:33:28;;;;;;;15.77;7.32;;;;;;;;;;5014891;28;20064;-69
2022/03/31 05:35:54;;;;;;;15.65;5.95;;;;;;;;;;5015436;28;20029;-70
2022/03/31 05:38:19;;;;;;;12.60;5.78;;;;;;;;;;5018925;28;20021;-68
2022/03/31 05:40:45;;;;;;;11.68;5.80;;;;;;;;;;5018458;28;20041;-68
2022/03/31 05:43:10;;;;;;;13.52;5.45;;;;;;;;;;5020887;28;20038;-68
2022/03/31 05:45:35;;;;;;;11.68;5.78;;;;;;;;;;5019265;28;20146;-68
2022/03/31 05:48:00;;;;;;;7.80;4.38;;;;;;;;;;5019019;28;20028;-68
2022/03/31 05:50:25;;;;;;;9.52;5.05;;;;;;;;;;5020575;28;20033;-68
2022/03/31 05:52:51;;;;;;;8.18;5.05;;;;;;;;;;5018240;28;20387;-68
2022/03/31 05:55:17;;;;;;;8.77;4.75;;;;;;;;;;5016886;28;20032;-68
2022/03/31 05:57:43;;;;;;;15.63;5.80;;;;;;;;;;5018799;28;20030;-68
2022/03/31 06:00:09;;;;;;;9.48;5.65;;;;;;;;;;5015053;28;20034;-68
2022/03/31 06:02:35;;;;;;;8.32;4.80;;;;;;;;;;5011996;28;20026;-69
2022/03/31 06:05:00;;;;;;;14.57;5.47;;;;;;;;;;5017880;28;20037;-68
2022/03/31 06:07:25;;;;;;;18.65;6.20;;;;;;;;;;5016749;28;20076;-67
2022/03/31 06:09:50;;;;;;;15.20;6.45;;;;;;;;;;5015854;28;20029;-69
2022/03/31 06:12:15;;;;;;;8.68;5.50;;;;;;;;;;5017794;28;20814;-68
2022/03/31 06:14:41;;;;;;;8.83;4.70;;;;;;;;;;5029142;28;20032;-69
2022/03/31 06:17:06;;;;;;;9.52;3.55;;;;;;;;;;5024991;28;20270;-69
2022/03/31 06:19:32;;;;;;;10.27;5.13;;;;;;;;;;5031644;28;20020;-69
2022/03/31 06:21:57;;;;;;;7.65;4.40;;;;;;;;;;5023832;28;20271;-69
2022/03/31 06:24:23;;;;;;;10.38;4.45;;;;;;;;;;5017625;28;20025;-69
2022/03/31 06:26:48;;;;;;;11.02;5.15;;;;;;;;;;5026575;28;20381;-68
2022/03/31 06:29:13;;;;;;;11.52;5.82;;;;;;;;;;5015950;28;20033;-68
2022/03/31 06:31:38;;;;;;;13.15;5.63;;;;;;;;;;5023195;28;20112;-68
2022/03/31 06:34:04;;;;;;;8.40;4.90;;;;;;;;;;5026061;28;20472;-68
2022/03/31 06:36:30;;;;;;;9.75;4.53;;;;;;;;;;5022901;28;20476;-68
2022/03/31 06:38:56;;;;;;;10.55;5.68;;;;;;;;;;5023421;28;20033;-68
2022/03/31 06:41:21;;;;;;;15.90;6.10;;;;;;;;;;5023699;28;20311;-68
2022/03/31 06:43:48;;;;;;;14.13;5.63;;;;;;;;;;5022088;28;20021;-68
2022/03/31 06:46:13;;;;;;;10.35;4.90;;;;;;;;;;5025624;28;20014;-69
2022/03/31 06:48:41;;;;;;;10.30;5.10;;;;;;;;;;5022029;28;20022;-68
2022/03/31 06:51:08;;;;;;;9.07;4.97;;;;;;;;;;5025976;28;20053;-68
2022/03/31 06:53:33;;;;;;;14.88;5.20;;;;;;;;;;5021936;28;20014;-68
2022/03/31 06:55:58;;;;;;;11.18;5.15;;;;;;;;;;5025049;28;20468;-68
2022/03/31 06:58:27;;;;;;;14.13;6.40;;;;;;;;;;5020949;28;20065;-68
2022/03/31 07:00:52;;;;;;;14.80;5.78;;;;;;;;;;5025251;28;20337;-68
2022/03/31 07:03:17;;;;;;;12.32;5.63;;;;;;;;;;5022736;28;20012;-69
2022/03/31 07:05:43;;;;;;;11.50;5.40;;;;;;;;;;5034327;28;20480;-69
2022/03/31 07:08:08;;;;;;;11.30;5.03;;;;;;;;;;5022554;28;20025;-69
2022/03/31 07:10:33;;;;;;;11.68;5.47;;;;;;;;;;5022259;28;20527;-68
2022/03/31 07:13:00;;;;;;;9.90;5.30;;;;;;;;;;5022641;28;20036;-68
2022/03/31 07:15:25;;;;;;;11.18;5.25;;;;;;;;;;5021269;28;20025;-70
2022/03/31 07:17:51;;;;;;;12.48;5.20;;;;;;;;;;5023153;28;20020;-68
2022/03/31 07:20:16;;;;;;;8.75;5.32;;;;;;;;;;5022997;28;20044;-68
2022/03/31 07:22:42;;;;;;;12.43;6.00;;;;;;;;;;5021623;28;20116;-68
2022/03/31 07:25:07;;;;;;;11.20;5.90;;;;;;;;;;5019553;28;20424;-68
2022/03/31 07:27:32;;;;;;;10.15;4.82;;;;;;;;;;5013011;28;20029;-68
2022/03/31 07:29:58;;;;;;;14.40;5.70;;;;;;;;;;5020882;28;20040;-68
2022/03/31 07:32:23;;;;;;;11.98;5.05;;;;;;;;;;5019797;28;20459;-68
2022/03/31 07:34:48;;;;;;;15.23;5.80;;;;;;;;;;5018578;28;20279;-68
2022/03/31 07:37:13;;;;;;;10.07;5.20;;;;;;;;;;5021200;28;20275;-68
2022/03/31 07:39:41;;;;;;;11.52;4.55;;;;;;;;;;5015732;28;20044;-68
2022/03/31 07:42:07;;;;;;;12.30;5.57;;;;;;;;;;5020908;28;20309;-68
2022/03/31 07:44:32;;;;;;;10.82;5.38;;;;;;;;;;5014093;28;20502;-69
2022/03/31 07:46:57;;;;;;;13.02;5.88;;;;;;;;;;5015928;28;20512;-68
2022/03/31 07:49:22;;;;;;;15.30;5.57;;;;;;;;;;5020242;28;20029;-69
2022/03/31 07:51:47;;;;;;;13.05;5.80;;;;;;;;;;5023860;28;20026;-68
2022/03/31 07:54:13;;;;;;;14.50;5.88;;;;;;;;;;5015893;28;20344;-68
2022/03/31 07:56:38;;;;;;;15.07;5.82;;;;;;;;;;5015251;28;20345;-68
2022/03/31 07:59:03;;;;;;;12.38;5.55;;;;;;;;;;5022985;28;20270;-68
2022/03/31 08:01:28;;;;;;;13.63;6.40;;;;;;;;;;5017783;28;20096;-68
2022/03/31 08:03:54;;;;;;;13.15;6.20;;;;;;;;;;5020840;28;20029;-69
2022/03/31 08:06:19;;;;;;;11.38;5.75;;;;;;;;;;5022300;28;20068;-69
2022/03/31 08:08:45;;;;;;;11.55;5.93;;;;;;;;;;5021030;28;20310;-69
2022/03/31 08:11:10;;;;;;;20.58;6.03;;;;;;;;;;5021437;28;20034;-69
2022/03/31 08:13:35;;;;;;;13.18;6.57;;;;;;;;;;5022003;28;20499;-69
2022/03/31 08:16:01;;;;;;;11.43;5.45;;;;;;;;;;5020687;28;20028;-69
2022/03/31 08:18:28;;;;;;;9.85;5.28;;;;;;;;;;5020717;28;20037;-69
2022/03/31 08:20:54;;;;;;;21.00;5.72;;;;;;;;;;5020280;28;20045;-69
2022/03/31 08:23:20;;;;;;;12.68;6.50;;;;;;;;;;5019586;28;20908;-69
2022/03/31 08:25:45;;;;;;;37.13;7.80;;;;;;;;;;5020372;28;20027;-69
2022/03/31 08:28:11;;;;;;;12.63;5.68;;;;;;;;;;5023340;28;20399;-69
2022/03/31 08:30:36;;;;;;;13.35;6.85;;;;;;;;;;5019095;28;20071;-69
2022/03/31 08:33:01;;;;;;;8.30;5.63;;;;;;;;;;5020154;28;20159;-69
2022/03/31 08:35:28;;;;;;;11.55;5.53;;;;;;;;;;5022652;28;20029;-69
2022/03/31 08:37:53;;;;;;;13.00;6.22;;;;;;;;;;5021482;28;20021;-69
2022/03/31 08:40:19;;;;;;;11.30;5.50;;;;;;;;;;5020707;28;20032;-69
2022/03/31 08:42:44;;;;;;;13.20;5.75;;;;;;;;;;5015496;28;20037;-69
2022/03/31 08:45:11;;;;;;;9.88;6.22;;;;;;;;;;5019725;28;20513;-69
2022/03/31 08:47:37;;;;;;;12.73;6.75;;;;;;;;;;5014965;28;20026;-69
2022/03/31 08:50:02;;;;;;;19.02;6.35;;;;;;;;;;5016493;28;20025;-69
2022/03/31 08:52:27;;;;;;;13.73;7.25;;;;;;;;;;5027194;28;20029;-69
2022/03/31 08:54:52;;;;;;;12.48;6.57;;;;;;;;;;5022123;28;20025;-68
2022/03/31 08:57:18;;;;;;;14.15;6.88;;;;;;;;;;5026489;28;20021;-69
2022/03/31 08:59:43;;;;;;;12.40;6.13;;;;;;;;;;5026184;28;20106;-69
2022/03/31 09:02:09;;;;;;;14.23;6.38;;;;;;;;;;5022863;28;20026;-69
2022/03/31 09:04:34;;;;;;;10.80;6.03;;;;;;;;;;5019570;28;20036;-70
2022/03/31 09:07:03;;;;;;;13.73;6.18;;;;;;;;;;5011742;28;20034;-69
2022/03/31 09:09:29;;;;;;;12.65;5.75;;;;;;;;;;5019788;28;20116;-69
2022/03/31 09:11:54;;;;;;;11.55;6.15;;;;;;;;;;5019861;28;20436;-69
2022/03/31 09:14:29;;;;;;;11.38;5.70;;;;;;;;;;5017942;28;20026;-69
2022/03/31 09:16:54;;;;;;;10.98;5.97;;;;;;;;;;5013095;28;20069;-69
2022/03/31 09:19:20;;;;;;;12.27;6.40;;;;;;;;;;5023730;28;20506;-69
2022/03/31 09:21:50;;;;;;;14.23;5.90;;;;;;;;;;5025605;28;20042;-69
2022/03/31 09:24:16;;;;;;;16.50;5.75;;;;;;;;;;5018131;28;20022;-70
2022/03/31 09:26:45;;;;;;;14.73;5.80;;;;;;;;;;5022769;28;20082;-69
2022/03/31 09:29:12;;;;;;;10.48;5.85;;;;;;;;;;5020863;28;20026;-69
2022/03/31 09:31:37;;;;;;;13.32;5.53;;;;;;;;;;5020062;28;20443;-68
2022/03/31 09:34:03;;;;;;;14.70;6.15;;;;;;;;;;5018441;28;20025;-67
2022/03/31 09:36:28;;;;;;;8.80;5.23;;;;;;;;;;5019356;28;20032;-67
2022/03/31 09:38:54;;;;;;;10.80;5.60;;;;;;;;;;5019476;28;20274;-67
2022/03/31 09:41:21;;;;;;;12.77;5.70;;;;;;;;;;5017549;28;20353;-68
2022/03/31 09:43:47;;;;;;;10.00;5.07;;;;;;;;;;5020583;28;20025;-68
2022/03/31 09:46:25;;;;;;;9.02;4.95;;;;;;;;;;5019649;28;20482;-67
2022/03/31 09:48:51;;;;;;;19.20;6.25;;;;;;;;;;5017390;28;20029;-67
2022/03/31 09:51:18;;;;;;;12.57;5.40;;;;;;;;;;5015997;28;20068;-68
2022/03/31 09:53:45;;;;;;;11.02;5.95;;;;;;;;;;5024314;28;20410;-68
2022/03/31 09:56:11;;;;;;;10.98;5.93;;;;;;;;;;5021341;28;20499;-68
2022/03/31 09:58:37;;;;;;;25.17;8.18;;;;;;;;;;5029748;28;20017;-68
2022/03/31 10:01:03;;;;;;;11.93;6.03;;;;;;;;;;5026135;28;20033;-67
2022/03/31 10:03:28;;;;;;;10.80;6.32;;;;;;;;;;5022387;28;20029;-67
2022/03/31 10:05:53;;;;;;;17.93;6.37;;;;;;;;;;5020534;28;20763;-68
2022/03/31 10:08:19;;;;;;;11.35;6.15;;;;;;;;;;5020636;28;20266;-67
2022/03/31 10:10:46;;;;;;;14.07;7.28;;;;;;;;;;5028732;28;20032;-67
2022/03/31 10:13:17;;;;;;;18.00;7.22;;;;;;;;;;5027851;28;20369;-67
2022/03/31 10:15:43;;;;;;;21.63;7.60;;;;;;;;;;5027844;28;20025;-68
2022/03/31 10:18:11;;;;;;;11.48;6.10;;;;;;;;;;5028337;28;20025;-68
2022/03/31 10:20:36;;;;;;;14.30;6.70;;;;;;;;;;5025347;28;20372;-67
2022/03/31 10:25:47;;;;;;;23.20;7.10;;;;;;;;;;5020306;28;20143;-67
2022/03/31 10:28:21;;;;;;;14.25;7.18;;;;;;;;;;5024919;28;20037;-67
2022/03/31 10:31:07;;;;;;;15.43;6.95;;;;;;;;;;5023693;28;20024;-67
2022/03/31 10:33:38;;;;;;;11.07;6.45;;;;;;;;;;5017244;28;20032;-67
2022/03/31 10:36:10;;;;;;;13.30;5.68;;;;;;;;;;5024868;28;20018;-67
2022/03/31 10:38:37;;;;;;;16.02;7.40;;;;;;;;;;5020464;28;20025;-68
2022/03/31 10:41:08;;;;;;;10.75;5.95;;;;;;;;;;5022633;28;20499;-67
2022/03/31 10:43:33;;;;;;;12.32;6.47;;;;;;;;;;5026196;28;21520;-67
2022/03/31 10:46:01;;;;;;;12.02;6.32;;;;;;;;;;5019346;28;20737;-67
2022/03/31 10:48:31;;;;;;;13.30;6.82;;;;;;;;;;5013012;28;20029;-67
2022/03/31 10:51:06;;;;;;;13.77;6.45;;;;;;;;;;5026278;28;20080;-68
2022/03/31 10:53:32;;;;;;;13.77;6.93;;;;;;;;;;5026784;28;20022;-67
2022/03/31 10:55:58;;;;;;;12.30;7.47;;;;;;;;;;5025908;28;20024;-67
2022/03/31 10:58:25;;;;;;;11.65;7.35;;;;;;;;;;5018023;28;20045;-68
2022/03/31 11:00:51;;;;;;;11.80;6.65;;;;;;;;;;5017157;28;20026;-67
2022/03/31 11:03:17;;;;;;;13.00;6.68;;;;;;;;;;5021494;28;20033;-67
2022/03/31 11:05:42;;;;;;;14.30;6.65;;;;;;;;;;5019922;28;20033;-67
2022/03/31 11:08:08;;;;;;;13.02;7.07;;;;;;;;;;5022279;28;20033;-67
2022/03/31 11:10:40;;;;;;;20.85;7.95;;;;;;;;;;5020924;28;20540;-67
2022/03/31 11:13:06;;;;;;;10.68;6.80;;;;;;;;;;5023559;28;20514;-67
2022/03/31 11:15:31;;;;;;;14.82;7.40;;;;;;;;;;5020100;28;20029;-67
2022/03/31 11:17:59;;;;;;;12.50;6.57;;;;;;;;;;5019318;28;20042;-68
2022/03/31 11:20:24;;;;;;;14.88;6.95;;;;;;;;;;5015259;28;20060;-68
2022/03/31 11:22:51;;;;;;;14.90;7.45;;;;;;;;;;5023394;28;20426;-67
2022/03/31 11:25:17;;;;;;;10.90;6.50;;;;;;;;;;5022808;28;20298;-68
2022/03/31 11:27:43;;;;;;;11.20;6.50;;;;;;;;;;5019342;28;20069;-67
2022/03/31 11:30:12;;;;;;;12.35;6.68;;;;;;;;;;5019153;28;20071;-67
2022/03/31 11:32:38;;;;;;;24.33;7.43;;;;;;;;;;5018592;28;20018;-68
2022/03/31 11:35:09;;;;;;;14.27;7.85;;;;;;;;;;5026351;28;20040;-68
2022/03/31 11:37:34;;;;;;;14.05;6.70;;;;;;;;;;5016611;28;20555;-68
2022/03/31 11:39:59;;;;;;;14.25;7.70;;;;;;;;;;5025539;28;20033;-68
2022/03/31 11:42:25;;;;;;;12.40;7.20;;;;;;;;;;5015293;28;20018;-68
2022/03/31 11:44:50;;;;;;;14.70;6.95;;;;;;;;;;5020951;28;20277;-68
2022/03/31 11:47:20;;;;;;;12.52;7.00;;;;;;;;;;5023334;28;20025;-67
2022/03/31 11:49:55;;;;;;;14.70;7.72;;;;;;;;;;5019695;28;20411;-67
2022/03/31 11:52:27;;;;;;;17.80;7.95;;;;;;;;;;5020960;28;20022;-67
2022/03/31 11:54:53;;;;;;;15.77;7.88;;;;;;;;;;5018405;28;20025;-68
2022/03/31 11:57:18;;;;;;;14.35;8.48;;;;;;;;;;5022913;28;20018;-68
2022/03/31 11:59:43;;;;;;;16.05;8.30;;;;;;;;;;5024158;28;20025;-68
2022/03/31 12:02:16;;;;;;;15.52;8.02;;;;;;;;;;5021817;28;20298;-68
2022/03/31 12:04:46;;;;;;;12.82;8.07;;;;;;;;;;5020199;28;20297;-68
2022/03/31 12:07:11;;;;;;;14.68;7.47;;;;;;;;;;5018006;28;20527;-69
2022/03/31 12:09:41;;;;;;;13.68;7.03;;;;;;;;;;5024828;28;20029;-71
2022/03/31 12:12:09;;;;;;;16.33;8.60;;;;;;;;;;5015379;28;20040;-68
2022/03/31 12:14:36;;;;;;;16.02;7.35;;;;;;;;;;5017754;28;20033;-68
2022/03/31 12:17:02;;;;;;;13.25;7.93;;;;;;;;;;5023458;28;20033;-68
2022/03/31 12:19:37;;;;;;;14.13;7.70;;;;;;;;;;5023814;28;20030;-68
2022/03/31 12:22:02;;;;;;;13.65;7.75;;;;;;;;;;5021318;28;20060;-68
2022/03/31 12:24:27;;;;;;;13.30;6.97;;;;;;;;;;5022145;28;20483;-68
2022/03/31 12:26:56;;;;;;;13.97;7.47;;;;;;;;;;5021673;28;20136;-68
2022/03/31 12:29:23;;;;;;;15.15;7.40;;;;;;;;;;5019344;28;20275;-68
2022/03/31 12:31:58;;;;;;;13.65;6.82;;;;;;;;;;5020524;28;20029;-68
2022/03/31 12:34:24;;;;;;;13.55;7.45;;;;;;;;;;5018234;28;20385;-68
2022/03/31 12:36:49;;;;;;;12.07;6.80;;;;;;;;;;5020376;28;20037;-68
2022/03/31 12:39:14;;;;;;;15.43;6.75;;;;;;;;;;5022094;28;20263;-68
2022/03/31 12:41:39;;;;;;;11.43;7.07;;;;;;;;;;5022309;28;20270;-68
2022/03/31 12:44:07;;;;;;;11.63;7.35;;;;;;;;;;5024425;28;20639;-68
2022/03/31 12:46:34;;;;;;;13.75;6.22;;;;;;;;;;5022942;28;20279;-68
2022/03/31 12:49:07;;;;;;;11.00;6.28;;;;;;;;;;5019918;28;20025;-68
2022/03/31 12:51:41;;;;;;;11.00;6.82;;;;;;;;;;5021151;28;20017;-68
2022/03/31 12:54:17;;;;;;;8.05;5.70;;;;;;;;;;5018297;28;20049;-68
2022/03/31 12:56:45;;;;;;;8.80;5.75;;;;;;;;;;5021566;28;20480;-68
2022/03/31 12:59:15;;;;;;;11.05;5.63;;;;;;;;;;5020486;28;20471;-68
2022/03/31 13:01:40;;;;;;;9.57;5.95;;;;;;;;;;5020742;28;20558;-68
2022/03/31 13:04:05;;;;;;;9.35;5.85;;;;;;;;;;5017355;28;20026;-68
2022/03/31 13:06:33;;;;;;;11.43;6.22;;;;;;;;;;5016328;28;20328;-68
2022/03/31 13:08:59;;;;;;;9.45;5.70;;;;;;;;;;5022821;28;20272;-68
2022/03/31 13:11:24;;;;;;;11.20;5.97;;;;;;;;;;5021610;28;20037;-68
2022/03/31 13:13:50;;;;;;;10.18;5.95;;;;;;;;;;5019154;28;20056;-68
2022/03/31 13:16:15;;;;;;;9.57;5.38;;;;;;;;;;5013845;28;20294;-68
2022/03/31 13:18:40;;;;;;;8.05;5.47;;;;;;;;;;5021813;28;20075;-68
2022/03/31 13:21:06;;;;;;;10.82;5.90;;;;;;;;;;5016212;28;20021;-68
2022/03/31 13:23:32;;;;;;;8.75;5.32;;;;;;;;;;5025061;28;20132;-68
2022/03/31 13:25:57;;;;;;;13.55;6.72;;;;;;;;;;5014248;28;20037;-68
2022/03/31 13:28:23;;;;;;;8.50;5.70;;;;;;;;;;5018240;28;20068;-68
2022/03/31 13:30:49;;;;;;;7.80;5.53;;;;;;;;;;5021435;28;20029;-68
2022/03/31 13:33:14;;;;;;;9.87;5.20;;;;;;;;;;5012795;28;20109;-68
2022/03/31 13:35:40;;;;;;;11.50;4.55;;;;;;;;;;5023150;28;20271;-68
2022/03/31 13:38:05;;;;;;;6.63;4.57;;;;;;;;;;5025036;28;20036;-68
2022/03/31 13:40:31;;;;;;;8.50;5.25;;;;;;;;;;5024398;28;20025;-68
2022/03/31 13:42:56;;;;;;;7.30;4.63;;;;;;;;;;5027575;28;20741;-68
2022/03/31 13:45:21;;;;;;;6.55;4.90;;;;;;;;;;5026578;28;20037;-67
2022/03/31 13:47:47;;;;;;;10.85;4.70;;;;;;;;;;5019866;28;20033;-67
2022/03/31 13:50:13;;;;;;;6.80;4.72;;;;;;;;;;5024668;28;20278;-68
2022/03/31 13:52:38;;;;;;;7.57;4.72;;;;;;;;;;5023283;28;20068;-67
2022/03/31 13:55:05;;;;;;;11.05;7.55;;;;;;;;;;5021204;28;20061;-68
2022/03/31 14:03:07;;;;;;;8.35;4.88;;;;;;;;;;5020163;28;20033;-67
2022/03/31 14:05:32;;;;;;;7.15;5.07;;;;;;;;;;5019236;28;20022;-69
2022/03/31 14:07:57;;;;;;;8.23;5.60;;;;;;;;;;5018517;28;20045;-67
2022/03/31 14:10:22;;;;;;;7.87;5.20;;;;;;;;;;5020114;28;20295;-68
2022/03/31 14:12:48;;;;;;;6.60;4.68;;;;;;;;;;5025248;28;20802;-68
2022/03/31 14:15:14;;;;;;;6.80;5.07;;;;;;;;;;5030343;28;20021;-68
2022/03/31 14:17:39;;;;;;;6.32;4.75;;;;;;;;;;5026600;28;20067;-68
2022/03/31 14:20:05;;;;;;;5.38;4.13;;;;;;;;;;5026504;28;20025;-68
2022/03/31 14:22:31;;;;;;;7.18;5.00;;;;;;;;;;5021845;28;20388;-68
2022/03/31 14:24:56;;;;;;;7.10;4.97;;;;;;;;;;5021066;28;20056;-68
2022/03/31 14:27:22;;;;;;;7.10;4.93;;;;;;;;;;5026821;28;20021;-68
2022/03/31 14:29:48;;;;;;;7.00;4.85;;;;;;;;;;5023942;28;21040;-68
2022/03/31 14:32:13;;;;;;;8.57;4.35;;;;;;;;;;5016648;28;20268;-69
2022/03/31 14:34:38;;;;;;;6.15;4.22;;;;;;;;;;5022505;28;20060;-68
2022/03/31 14:37:04;;;;;;;5.63;4.28;;;;;;;;;;5014513;28;20028;-68
2022/03/31 14:39:30;;;;;;;7.82;4.80;;;;;;;;;;5022856;28;20029;-68
2022/03/31 14:41:55;;;;;;;7.47;4.90;;;;;;;;;;5022515;28;20447;-68
2022/03/31 14:44:24;;;;;;;5.60;4.38;;;;;;;;;;5016139;28;20032;-68
2022/03/31 14:46:50;;;;;;;6.65;5.28;;;;;;;;;;5022459;28;20024;-68